Time;durP1;ratioP1;P1;durP2;ratioP2;P2;SDS_P1;SDS_P2;PMS_P1;PMS_P2;Temp;Humidity;BMP_temperature;BMP_pressure;BME280_temperature;BME280_humidity;BME280_pressure;Samples;Min_cycle;Max_cycle;Signal;HPM_P1;HPM_P2
2022/11/20 00:06:26;;;;;;;19.08;10.18;;;;;;;-0.03;94.27;100806.41;20770212;28;20084;-70
2022/11/20 00:16:48;;;;;;;21.15;9.85;;;;;;;0.02;94.69;100803.75;20727902;28;20078;-70
2022/11/20 00:27:09;;;;;;;15.93;8.20;;;;;;;0.02;94.39;100799.47;20740698;28;20050;-70
2022/11/20 00:37:31;;;;;;;15.20;8.97;;;;;;;0.09;94.63;100798.44;20763790;28;20091;-69
2022/11/20 00:47:52;;;;;;;22.23;9.73;;;;;;;0.17;94.24;100795.72;20762650;28;20057;-70
2022/11/20 00:58:14;;;;;;;20.03;9.57;;;;;;;0.21;93.68;100795.63;20746219;28;20042;-69
2022/11/20 01:08:36;;;;;;;16.57;9.00;;;;;;;0.32;93.38;100792.78;20745204;28;20072;-69
2022/11/20 01:19:00;;;;;;;17.05;9.38;;;;;;;0.34;93.45;100794.47;20742424;28;20127;-69
2022/11/20 01:29:25;;;;;;;14.02;8.68;;;;;;;0.31;93.49;100786.84;20768514;28;20147;-69
2022/11/20 01:39:46;;;;;;;14.15;8.15;;;;;;;0.34;93.91;100780.78;20751411;28;20534;-69
2022/11/20 01:50:24;;;;;;;14.70;6.73;;;;;;;0.35;93.69;100769.66;20738476;28;20188;-69
2022/11/20 02:00:45;;;;;;;14.18;8.85;;;;;;;0.35;93.10;100759.41;20747001;28;20045;-69
2022/11/20 02:11:07;;;;;;;15.17;8.53;;;;;;;0.36;93.25;100749.13;20766273;22;20053;-66
2022/11/20 02:21:47;;;;;;;14.63;8.73;;;;;;;0.35;93.36;100746.59;20871576;28;20189;-65
2022/11/20 02:32:25;;;;;;;15.82;8.50;;;;;;;0.35;92.90;100726.09;20970799;28;20064;-66
2022/11/20 02:42:47;;;;;;;19.85;7.70;;;;;;;0.34;92.74;100737.22;20969897;28;20047;-66
2022/11/20 02:53:08;;;;;;;;;;;;;;;0.30;92.49;100720.22;20961783;28;20118;-66
2022/11/20 03:03:30;;;;;;;12.93;7.37;;;;;;;0.34;92.47;100716.72;20966702;28;19924;-66
2022/11/20 03:13:51;;;;;;;12.73;7.23;;;;;;;0.38;92.62;100705.50;20939395;28;20101;-66
2022/11/20 03:24:14;;;;;;;13.43;7.07;;;;;;;0.34;92.37;100688.53;20948770;28;20054;-66
2022/11/20 03:34:36;;;;;;;13.70;7.32;;;;;;;0.32;91.67;100680.03;20951939;28;20476;-65
2022/11/20 03:44:58;;;;;;;11.27;6.67;;;;;;;0.34;91.60;100668.88;20956768;28;20036;-66
2022/11/20 03:55:19;;;;;;;13.55;7.55;;;;;;;0.39;92.54;100655.94;20959120;28;20044;-65
2022/11/20 04:05:40;;;;;;;11.67;6.63;;;;;;;0.42;91.81;100640.47;20956381;28;20040;-65
2022/11/20 04:16:02;;;;;;;12.67;6.70;;;;;;;0.46;92.89;100670.25;20955361;28;20040;-66
2022/11/20 04:26:25;;;;;;;;;;;;;;;0.37;92.61;100657.69;20931521;28;20132;-66
2022/11/20 04:36:46;;;;;;;12.40;5.80;;;;;;;0.37;93.53;100648.25;20928742;28;19932;-66
2022/11/20 04:47:08;;;;;;;11.77;5.13;;;;;;;0.41;94.09;100643.91;20944069;28;20075;-66
2022/11/20 04:57:29;;;;;;;10.07;5.60;;;;;;;0.45;93.91;100635.25;20918216;28;20545;-66
2022/11/20 05:07:51;;;;;;;11.13;6.10;;;;;;;0.49;93.82;100629.16;20942212;28;20048;-65
2022/11/20 05:18:12;;;;;;;11.23;6.50;;;;;;;0.54;93.20;100635.84;20934632;28;20514;-65
2022/11/20 05:28:34;;;;;;;10.70;6.47;;;;;;;0.50;93.43;100628.28;20942149;28;20079;-65
2022/11/20 05:38:55;;;;;;;10.68;6.55;;;;;;;0.50;92.99;100612.91;20945099;28;20094;-65
2022/11/20 05:49:22;;;;;;;13.73;7.20;;;;;;;0.50;93.90;100608.63;20939896;28;20126;-65
2022/11/20 05:59:46;;;;;;;11.80;6.32;;;;;;;0.36;94.41;100585.09;20938383;28;20040;-65
2022/11/20 06:10:08;;;;;;;12.97;7.03;;;;;;;0.32;94.63;100585.19;20913345;28;20087;-65
2022/11/20 06:20:29;;;;;;;11.13;7.07;;;;;;;0.40;93.87;100583.28;20923514;28;20048;-65
2022/11/20 06:30:51;;;;;;;11.90;7.03;;;;;;;0.36;93.13;100582.53;20935629;28;20052;-65
2022/11/20 06:41:15;;;;;;;12.33;7.13;;;;;;;0.37;92.36;100580.78;20945403;28;20044;-66
2022/11/20 06:51:36;;;;;;;12.52;7.45;;;;;;;0.41;92.48;100587.53;20929558;28;20077;-65
2022/11/20 07:01:59;;;;;;;13.15;7.70;;;;;;;0.40;91.93;100590.97;20928453;28;20388;-65
2022/11/20 07:12:21;;;;;;;13.63;8.03;;;;;;;0.41;91.92;100587.53;20925107;28;20181;-64
2022/11/20 07:22:45;;;;;;;13.90;7.93;;;;;;;0.37;92.20;100591.88;20966208;28;20106;-65
2022/11/20 07:33:07;;;;;;;13.85;8.00;;;;;;;0.41;91.34;100595.22;20952962;28;20124;-65
2022/11/20 07:43:29;;;;;;;14.00;8.00;;;;;;;0.40;91.74;100596.09;20958920;28;20055;-65
2022/11/20 07:53:52;;;;;;;15.63;8.77;;;;;;;0.45;92.22;100595.09;20956638;28;20084;-65
2022/11/20 08:04:15;;;;;;;16.00;8.95;;;;;;;0.43;91.58;100596.84;20952533;28;20164;-65
2022/11/20 08:14:37;;;;;;;13.57;8.80;;;;;;;0.49;91.35;100600.97;20950838;22;20702;-61
2022/11/20 08:24:58;;;;;;;14.70;9.23;;;;;;;0.41;92.08;100597.78;20935465;28;20044;-59
2022/11/20 08:35:21;;;;;;;15.53;8.47;;;;;;;0.32;91.43;100592.88;20996239;28;20197;-59
2022/11/20 08:45:43;;;;;;;15.77;9.52;;;;;;;0.35;92.31;100597.94;21008984;28;20094;-58
2022/11/20 08:56:05;;;;;;;19.02;10.38;;;;;;;0.44;91.75;100597.66;20995612;28;20419;-58
2022/11/20 09:06:26;;;;;;;17.23;9.02;;;;;;;0.49;90.86;100586.44;20994798;28;20052;-59
2022/11/20 09:16:50;;;;;;;15.13;9.20;;;;;;;0.54;89.85;100591.44;20998144;28;20574;-60
2022/11/20 09:27:12;;;;;;;13.50;8.57;;;;;;;0.74;89.89;100587.41;20995736;28;20075;-60
2022/11/20 09:37:34;;;;;;;13.27;8.23;;;;;;;0.98;90.65;100602.06;20983963;28;20043;-58
2022/11/20 09:48:18;;;;;;;13.85;8.02;;;;;;;1.01;87.11;100600.28;20994982;28;20090;-58
2022/11/20 09:58:47;;;;;;;13.73;8.30;;;;;;;1.06;86.98;100600.97;20977550;28;20044;-63
2022/11/20 10:09:18;;;;;;;15.18;7.55;;;;;;;1.04;86.76;100591.66;20963166;28;20041;-61
2022/11/20 10:20:11;;;;;;;11.80;7.20;;;;;;;0.99;85.87;100588.38;20987328;28;20070;-61
2022/11/20 10:30:40;;;;;;;12.75;7.25;;;;;;;1.00;84.82;100569.53;21071772;28;20295;-62
2022/11/20 10:52:04;;;;;;;14.38;7.72;;;;;;;1.13;85.36;100561.41;20954635;28;20501;-62
2022/11/20 11:02:52;;;;;;;;;;;;;;;1.15;83.46;100553.66;21004454;28;20044;-63
2022/11/20 11:13:22;;;;;;;11.93;6.07;;;;;;;1.37;83.57;100549.53;20996300;28;19985;-62
2022/11/20 11:23:44;;;;;;;12.07;6.18;;;;;;;1.35;82.46;100530.78;20996178;28;20063;-61
2022/11/20 11:34:16;;;;;;;11.70;6.53;;;;;;;1.42;82.89;100521.97;20988683;28;20076;-62
2022/11/20 11:55:42;;;;;;;9.32;5.57;;;;;;;1.81;81.10;100516.34;20975233;28;20505;-62
2022/11/20 12:06:14;;;;;;;10.95;5.93;;;;;;;1.79;80.76;100497.59;20978789;28;20075;-62
2022/11/20 12:16:37;;;;;;;8.50;4.20;;;;;;;1.98;81.79;100478.06;20957735;28;20556;-62
2022/11/20 12:27:34;;;;;;;10.23;6.38;;;;;;;2.08;79.91;100477.69;20972900;28;20122;-61
2022/11/20 12:38:37;;;;;;;9.50;5.88;;;;;;;2.08;81.71;100464.00;20972243;28;20132;-62
2022/11/20 12:49:05;;;;;;;13.27;6.13;;;;;;;2.18;80.45;100455.06;20989791;28;20052;-68
2022/11/20 12:59:45;;;;;;;93.18;9.20;;;;;;;2.25;81.96;100451.38;20980227;28;20049;-64
2022/11/20 13:10:18;;;;;;;12.20;6.13;;;;;;;2.25;80.40;100451.38;20968369;28;20056;-67
2022/11/20 13:20:44;;;;;;;8.27;5.57;;;;;;;2.02;80.62;100443.66;20991295;28;20114;-66
2022/11/20 13:31:24;;;;;;;9.43;5.47;;;;;;;2.10;80.50;100449.34;20982522;28;20040;-67
2022/11/20 13:41:54;;;;;;;9.90;5.40;;;;;;;2.17;79.26;100432.84;20999981;28;20090;-66
2022/11/20 13:52:31;;;;;;;8.30;4.78;;;;;;;2.31;76.85;100425.44;20956926;28;20453;-66
2022/11/20 14:03:05;;;;;;;6.82;4.35;;;;;;;2.25;77.84;100418.81;20980641;28;20045;-66
2022/11/20 14:13:26;;;;;;;10.32;6.10;;;;;;;2.26;77.73;100411.91;21083538;28;20056;-66
2022/11/20 14:23:47;;;;;;;12.07;5.60;;;;;;;2.20;77.03;100401.84;20996910;28;20093;-67
2022/11/20 14:34:20;;;;;;;9.90;5.67;;;;;;;2.06;74.97;100383.53;20954976;28;20412;-66
2022/11/20 14:44:42;;;;;;;9.05;5.63;;;;;;;1.99;77.72;100375.22;20966583;28;20036;-66
2022/11/20 14:55:04;;;;;;;14.40;6.60;;;;;;;1.99;79.29;100366.69;20937239;28;20096;-65
2022/11/20 15:05:45;;;;;;;10.98;6.97;;;;;;;1.86;80.41;100349.19;20959470;28;20124;-65
2022/11/20 15:16:26;;;;;;;10.95;6.30;;;;;;;1.74;80.06;100332.53;21027056;28;20053;-65
2022/11/20 15:26:48;;;;;;;9.90;6.50;;;;;;;1.55;79.47;100318.66;20990196;28;20052;-64
2022/11/20 15:37:09;;;;;;;11.57;6.87;;;;;;;1.35;82.75;100313.41;21000843;28;20286;-65
2022/11/20 15:47:34;;;;;;;12.57;7.20;;;;;;;1.20;82.52;100300.28;21007273;28;20043;-64
2022/11/20 15:57:55;;;;;;;15.57;8.15;;;;;;;1.02;82.64;100286.34;21039488;28;20040;-60
2022/11/20 16:08:17;;;;;;;12.17;7.30;;;;;;;0.90;81.32;100277.41;21052506;28;20533;-61
2022/11/20 16:18:38;;;;;;;13.20;7.23;;;;;;;0.80;82.83;100283.75;20976814;28;20040;-60
2022/11/20 16:29:02;;;;;;;12.80;7.20;;;;;;;0.69;82.21;100273.03;20990153;28;20048;-61
2022/11/20 16:39:24;;;;;;;15.63;7.82;;;;;;;0.74;81.86;100289.06;20959603;28;20063;-61
2022/11/20 16:49:46;;;;;;;15.77;8.32;;;;;;;0.64;82.20;100277.47;20982921;28;20396;-61
2022/11/20 17:00:08;;;;;;;15.23;8.23;;;;;;;0.61;83.23;100267.31;20985742;28;20048;-59
2022/11/20 17:10:30;;;;;;;20.67;10.63;;;;;;;0.49;84.13;100257.47;20945721;28;1098658;-60
2022/11/20 17:20:54;;;;;;;16.40;9.45;;;;;;;0.47;85.25;100254.09;20945077;28;20129;-61
2022/11/20 17:31:16;;;;;;;17.20;9.13;;;;;;;0.44;85.90;100238.81;20956739;28;20076;-61
2022/11/20 17:41:37;;;;;;;12.38;7.88;;;;;;;0.35;84.80;100236.56;20968259;28;20120;-61
2022/11/20 17:51:59;;;;;;;12.83;8.03;;;;;;;0.24;85.66;100230.97;20955374;28;20105;-61
2022/11/20 18:02:23;;;;;;;15.07;8.80;;;;;;;0.18;86.35;100220.91;20727783;23;20120;-69
2022/11/20 18:12:45;;;;;;;11.82;7.53;;;;;;;0.17;87.96;100204.72;20739549;28;20504;-69
2022/11/20 18:23:06;;;;;;;11.87;7.13;;;;;;;0.11;86.83;100199.78;20744509;28;20100;-69
2022/11/20 18:33:29;;;;;;;15.47;8.30;;;;;;;0.06;87.00;100190.56;20755150;28;20054;-68
2022/11/20 18:54:34;;;;;;;20.67;9.68;;;;;;;0.02;86.47;100146.31;20773517;28;20041;-68
2022/11/20 19:04:56;;;;;;;15.95;10.23;;;;;;;0.11;86.85;100142.59;20753625;28;20046;-68
2022/11/20 19:15:17;;;;;;;16.33;10.33;;;;;;;0.10;86.96;100130.69;20777611;28;20046;-68
2022/11/20 19:25:39;;;;;;;19.33;10.15;;;;;;;0.15;88.23;100128.78;20782234;28;20508;-68
2022/11/20 19:36:09;;;;;;;20.10;10.70;;;;;;;0.21;89.02;100128.59;20759577;28;20042;-69
2022/11/20 19:46:32;;;;;;;18.48;9.82;;;;;;;0.23;88.00;100111.44;20781249;28;20056;-68
2022/11/20 19:56:54;;;;;;;20.83;10.65;;;;;;;0.32;88.09;100108.53;20762879;28;20087;-69
2022/11/20 20:07:18;;;;;;;15.52;8.82;;;;;;;0.32;87.61;100101.72;20778488;28;20107;-68
2022/11/20 20:17:40;;;;;;;15.55;8.48;;;;;;;0.11;86.31;100096.50;20766869;28;20504;-68
2022/11/20 20:28:01;;;;;;;19.10;10.70;;;;;;;0.01;87.69;100095.09;20773620;28;20041;-68
2022/11/20 20:38:23;;;;;;;19.60;10.43;;;;;;;-0.05;87.78;100095.34;20780129;28;20143;-68
2022/11/20 20:48:44;;;;;;;19.13;10.17;;;;;;;-0.22;86.92;100092.50;20777713;28;20539;-68
2022/11/20 20:59:13;;;;;;;16.88;9.93;;;;;;;-0.22;88.59;100082.25;20762307;28;20453;-68
2022/11/20 21:09:35;;;;;;;19.97;11.70;;;;;;;-0.24;90.94;100088.31;20760092;28;20049;-68
2022/11/20 21:19:56;;;;;;;23.40;11.33;;;;;;;-0.30;91.17;100084.25;20754528;28;20042;-68
2022/11/20 21:30:18;;;;;;;19.30;10.97;;;;;;;-0.32;91.25;100086.00;20762201;28;20284;-68
2022/11/20 21:40:39;;;;;;;18.87;10.33;;;;;;;-0.33;90.80;100092.00;20765589;28;20115;-69
2022/11/20 21:51:09;;;;;;;25.17;11.70;;;;;;;-0.39;91.87;100078.59;20761589;28;20496;-69
2022/11/20 22:01:31;;;;;;;20.52;10.20;;;;;;;-0.43;91.07;100075.25;20771495;28;20050;-68
2022/11/20 22:11:52;;;;;;;18.77;10.30;;;;;;;-0.41;92.44;100055.56;20739186;28;20537;-68
2022/11/20 22:22:14;;;;;;;19.53;10.97;;;;;;;-0.43;92.68;100046.28;20772061;28;20326;-68
2022/11/20 22:32:35;;;;;;;16.70;10.33;;;;;;;-0.49;93.47;100047.31;20764435;28;20132;-68
2022/11/20 22:42:57;;;;;;;22.30;11.00;;;;;;;-0.50;94.03;100045.66;20772157;28;20108;-68
2022/11/20 22:53:18;;;;;;;20.27;11.27;;;;;;;-0.58;94.12;100045.03;20766877;28;20107;-68
2022/11/20 23:03:43;;;;;;;19.63;11.03;;;;;;;-0.60;94.44;100043.44;20768307;28;20123;-68
2022/11/20 23:14:07;;;;;;;23.38;12.88;;;;;;;-0.65;94.29;100051.25;20760577;28;20046;-68
2022/11/20 23:24:28;;;;;;;24.63;12.13;;;;;;;-0.74;95.38;100046.44;20781198;28;20094;-68
2022/11/20 23:34:50;;;;;;;23.97;12.30;;;;;;;-0.70;95.27;100042.88;20754364;28;20049;-68
2022/11/20 23:45:12;;;;;;;20.83;11.73;;;;;;;-0.70;95.72;100042.88;20768878;28;20530;-68
2022/11/20 23:55:34;;;;;;;19.27;11.87;;;;;;;-0.71;96.05;100035.28;20774021;28;20542;-69
